Terminal Aerodrome Forecast
Issued by NWS

Current Version | Previous Version | Text Only | Print | Product List | Glossary On
Versions: 1 2 3 4 5 6 7 8 9 10 11 12 13 14
000
FTUS46 KPDT 311800 AAB
TAFALW
TAF AMD
KALW 311827Z 3118/0118 24007KT P6SM VCTS SCT130CB SCT200
     FM312000 26008KT P6SM SCT150 BKN200
     FM010300 12006KT P6SM SCT150 BKN200
     FM010700 14007KT P6SM SCT130 BKN150
     FM011200 19005KT P6SM SCT130 SCT250=

USA.gov is the U.S. government's official web portal to all federal, state and local government web resources and services.